createdAt,value
2019-04-25T00:09:08.274Z,8.13
2019-04-25T00:24:25.585Z,8.43
2019-04-25T00:39:28.157Z,8.73
2019-04-25T00:54:31.590Z,8.53
2019-04-25T01:09:37.845Z,7.83
2019-04-25T01:24:41.320Z,8.73
2019-04-25T01:39:49.257Z,8.33
2019-04-25T01:54:53.131Z,7.93
2019-04-25T02:09:58.367Z,7.83
2019-04-25T02:25:04.359Z,9.23
2019-04-25T02:40:09.387Z,7.77
2019-04-25T02:55:29.589Z,7.83
2019-04-25T03:10:19.409Z,7.77
2019-04-25T03:25:24.592Z,11.10
2019-04-25T03:40:27.085Z,11.00
2019-04-25T03:55:31.372Z,10.53
2019-04-25T04:10:37.751Z,11.50
2019-04-25T04:25:41.477Z,11.60
2019-04-25T04:40:44.312Z,10.87
2019-04-25T04:55:48.299Z,14.50
2019-04-25T05:10:50.874Z,16.00
2019-04-25T05:25:53.933Z,27.13
2019-04-25T05:41:01.027Z,15.00
2019-04-25T05:56:04.642Z,12.47
2019-04-25T06:11:09.207Z,11.93
2019-04-25T06:26:23.043Z,12.53
2019-04-25T06:41:21.079Z,10.90
2019-04-25T06:56:26.084Z,11.33
2019-04-25T07:11:30.397Z,12.23
2019-04-25T07:26:44.352Z,11.87
2019-04-25T07:41:47.037Z,12.67
2019-04-25T07:56:49.609Z,21.20
2019-04-25T08:11:53.192Z,13.57
2019-04-25T08:26:56.767Z,11.73
2019-04-25T08:41:59.324Z,14.63
2019-04-25T08:57:04.369Z,11.83
2019-04-25T09:12:08.050Z,11.27
2019-04-25T09:27:10.606Z,9.00
2019-04-25T09:42:15.140Z,7.90
2019-04-25T09:57:26.001Z,9.70
2019-04-25T10:12:29.094Z,7.43
2019-04-25T10:27:32.611Z,6.93
2019-04-25T10:42:35.397Z,8.97
2019-04-25T10:57:38.889Z,7.53
2019-04-25T11:12:44.329Z,8.10
2019-04-25T11:27:49.670Z,7.63
2019-04-25T11:42:54.244Z,7.93
2019-04-25T11:57:57.331Z,6.90
2019-04-25T12:12:59.898Z,6.53
2019-04-25T12:28:04.570Z,6.97
2019-04-25T12:43:07.848Z,7.00
2019-04-25T12:58:13.210Z,7.10
2019-04-25T13:13:17.317Z,9.13
2019-04-25T13:28:24.370Z,8.47
2019-04-25T13:43:28.681Z,7.63
2019-04-25T13:58:32.150Z,8.23
2019-04-25T14:13:36.137Z,8.70
2019-04-25T14:28:40.770Z,6.80
2019-04-25T14:43:43.354Z,7.60
2019-04-25T14:58:46.660Z,8.37
2019-04-25T15:13:50.183Z,6.67
2019-04-25T15:28:52.970Z,9.87
2019-04-25T15:42:34.007Z,8.17
2019-04-25T15:52:36.859Z,6.73
2019-04-25T16:02:39.419Z,8.93
2019-04-25T16:12:42.945Z,8.70
2019-04-25T16:22:45.547Z,9.40
2019-04-25T16:32:50.009Z,7.03
2019-04-25T16:42:53.271Z,7.97
2019-04-25T16:52:56.061Z,7.93
2019-04-25T17:02:58.646Z,7.63
2019-04-25T17:13:04.362Z,19.77
2019-04-25T17:23:09.017Z,16.27
2019-04-25T17:33:26.359Z,234.80
2019-04-25T17:43:29.711Z,297.37
2019-04-25T17:53:33.016Z,96.60
2019-04-25T18:03:37.256Z,20.93
2019-04-25T18:13:42.492Z,124.53
2019-04-25T18:23:49.415Z,95.53
2019-04-25T18:33:56.470Z,114.27
2019-04-25T18:44:03.037Z,14.43
2019-04-25T18:54:11.286Z,11.57
2019-04-25T19:14:47.591Z,10.53
2019-04-25T19:24:50.305Z,11.03
2019-04-25T19:34:54.466Z,10.20
2019-04-25T19:44:57.819Z,11.80
2019-04-25T19:55:00.678Z,12.10
2019-04-25T20:05:05.615Z,11.53
2019-04-25T20:15:12.152Z,12.07
2019-04-25T20:25:16.929Z,13.67
2019-04-25T20:35:21.166Z,11.33
2019-04-25T20:45:24.078Z,11.80
2019-04-25T20:55:28.504Z,12.13
2019-04-25T21:05:32.046Z,11.50
2019-04-25T21:15:41.289Z,11.23
2019-04-25T21:25:46.958Z,10.30
2019-04-25T21:35:50.849Z,10.63
2019-04-25T21:45:54.272Z,10.77
2019-04-25T21:55:57.624Z,10.70
2019-04-25T22:06:00.833Z,11.57
2019-04-25T22:16:04.569Z,10.87
2019-04-25T22:26:08.285Z,9.97
2019-04-25T22:36:15.184Z,11.00
2019-04-25T22:46:25.742Z,10.27
2019-04-25T22:56:25.707Z,11.57
2019-04-25T23:06:29.504Z,11.23
2019-04-25T23:16:34.132Z,11.57
2019-04-25T23:37:10.096Z,10.77
2019-04-25T23:47:14.398Z,11.07
2019-04-25T23:57:19.071Z,10.40
